sensor_id;sensor_type;location;lat;lon;timestamp;temperature;humidity
59855;DHT22;45732;52.850;6.896;2023-02-01T00:02:02;6.10;99.90
59855;DHT22;45732;52.850;6.896;2023-02-01T00:04:28;6.20;99.90
59855;DHT22;45732;52.850;6.896;2023-02-01T00:06:54;6.20;99.90
59855;DHT22;45732;52.850;6.896;2023-02-01T00:09:19;6.20;99.90
59855;DHT22;45732;52.850;6.896;2023-02-01T00:11:45;6.20;99.90
59855;DHT22;45732;52.850;6.896;2023-02-01T00:14:12;6.20;99.90
59855;DHT22;45732;52.850;6.896;2023-02-01T00:16:38;6.30;99.90
59855;DHT22;45732;52.850;6.896;2023-02-01T00:19:07;6.30;99.90
59855;DHT22;45732;52.850;6.896;2023-02-01T00:21:33;6.30;99.90
59855;DHT22;45732;52.850;6.896;2023-02-01T00:23:59;6.40;99.90
59855;DHT22;45732;52.850;6.896;2023-02-01T00:26:37;6.40;99.90
59855;DHT22;45732;52.850;6.896;2023-02-01T00:29:06;6.40;99.90
59855;DHT22;45732;52.850;6.896;2023-02-01T00:31:32;6.40;99.90
59855;DHT22;45732;52.850;6.896;2023-02-01T00:33:58;6.40;99.90
59855;DHT22;45732;52.850;6.896;2023-02-01T00:36:24;6.40;99.90
59855;DHT22;45732;52.850;6.896;2023-02-01T00:38:50;6.40;99.90
59855;DHT22;45732;52.850;6.896;2023-02-01T00:41:20;6.40;99.90
59855;DHT22;45732;52.850;6.896;2023-02-01T00:43:46;6.40;99.90
59855;DHT22;45732;52.850;6.896;2023-02-01T00:46:14;6.40;99.90
59855;DHT22;45732;52.850;6.896;2023-02-01T00:48:40;6.40;99.90
59855;DHT22;45732;52.850;6.896;2023-02-01T00:51:11;6.40;99.90
59855;DHT22;45732;52.850;6.896;2023-02-01T00:53:37;6.40;99.90
59855;DHT22;45732;52.850;6.896;2023-02-01T00:56:03;6.40;99.90
59855;DHT22;45732;52.850;6.896;2023-02-01T00:58:29;6.40;99.90
59855;DHT22;45732;52.850;6.896;2023-02-01T01:01:20;6.40;99.90
59855;DHT22;45732;52.850;6.896;2023-02-01T01:03:49;6.40;99.90
59855;DHT22;45732;52.850;6.896;2023-02-01T01:06:37;6.40;99.90
59855;DHT22;45732;52.850;6.896;2023-02-01T01:09:05;6.40;99.90
59855;DHT22;45732;52.850;6.896;2023-02-01T01:11:34;6.40;99.90
59855;DHT22;45732;52.850;6.896;2023-02-01T01:14:00;6.40;99.90
59855;DHT22;45732;52.850;6.896;2023-02-01T01:16:28;6.40;99.90
59855;DHT22;45732;52.850;6.896;2023-02-01T01:18:55;6.40;99.90
59855;DHT22;45732;52.850;6.896;2023-02-01T01:21:21;6.40;99.90
59855;DHT22;45732;52.850;6.896;2023-02-01T01:23:47;6.40;99.90
59855;DHT22;45732;52.850;6.896;2023-02-01T01:26:16;6.40;99.90
59855;DHT22;45732;52.850;6.896;2023-02-01T01:28:43;6.40;99.90
59855;DHT22;45732;52.850;6.896;2023-02-01T01:31:13;6.40;99.90
59855;DHT22;45732;52.850;6.896;2023-02-01T01:33:39;6.40;99.90
59855;DHT22;45732;52.850;6.896;2023-02-01T01:36:06;6.40;99.90
59855;DHT22;45732;52.850;6.896;2023-02-01T01:38:32;6.40;99.90
59855;DHT22;45732;52.850;6.896;2023-02-01T01:40:58;6.40;99.90
59855;DHT22;45732;52.850;6.896;2023-02-01T01:43:23;6.40;99.90
59855;DHT22;45732;52.850;6.896;2023-02-01T01:45:49;6.40;99.90
59855;DHT22;45732;52.850;6.896;2023-02-01T01:50:54;6.50;99.90
59855;DHT22;45732;52.850;6.896;2023-02-01T01:53:35;6.50;99.90
59855;DHT22;45732;52.850;6.896;2023-02-01T01:56:03;6.50;99.90
59855;DHT22;45732;52.850;6.896;2023-02-01T01:58:32;6.50;99.90
59855;DHT22;45732;52.850;6.896;2023-02-01T02:00:58;6.50;99.90
59855;DHT22;45732;52.850;6.896;2023-02-01T02:03:30;6.50;99.90
59855;DHT22;45732;52.850;6.896;2023-02-01T02:05:59;6.50;99.90
59855;DHT22;45732;52.850;6.896;2023-02-01T02:08:28;6.50;99.90
59855;DHT22;45732;52.850;6.896;2023-02-01T02:10:54;6.50;99.90
59855;DHT22;45732;52.850;6.896;2023-02-01T02:13:38;6.40;99.90
59855;DHT22;45732;52.850;6.896;2023-02-01T02:35:37;6.20;99.90
59855;DHT22;45732;52.850;6.896;2023-02-01T02:43:44;6.10;99.90
59855;DHT22;45732;52.850;6.896;2023-02-01T02:46:46;6.10;99.90
59855;DHT22;45732;52.850;6.896;2023-02-01T02:49:49;6.10;99.90
59855;DHT22;45732;52.850;6.896;2023-02-01T02:52:40;6.10;99.90
59855;DHT22;45732;52.850;6.896;2023-02-01T02:55:27;6.10;99.90
59855;DHT22;45732;52.850;6.896;2023-02-01T02:57:55;6.00;99.90
59855;DHT22;45732;52.850;6.896;2023-02-01T03:00:40;6.00;99.90
59855;DHT22;45732;52.850;6.896;2023-02-01T03:03:25;6.00;99.90
59855;DHT22;45732;52.850;6.896;2023-02-01T03:06:15;6.00;99.90
59855;DHT22;45732;52.850;6.896;2023-02-01T03:08:42;5.90;99.90
59855;DHT22;45732;52.850;6.896;2023-02-01T03:11:12;6.00;99.90
59855;DHT22;45732;52.850;6.896;2023-02-01T03:13:51;6.00;99.90
59855;DHT22;45732;52.850;6.896;2023-02-01T03:16:36;6.00;99.90
59855;DHT22;45732;52.850;6.896;2023-02-01T03:19:18;6.00;99.90
59855;DHT22;45732;52.850;6.896;2023-02-01T03:21:55;6.00;99.90
59855;DHT22;45732;52.850;6.896;2023-02-01T03:27:22;6.00;99.90
59855;DHT22;45732;52.850;6.896;2023-02-01T03:32:31;6.00;99.90
59855;DHT22;45732;52.850;6.896;2023-02-01T03:35:20;6.00;99.90
59855;DHT22;45732;52.850;6.896;2023-02-01T03:37:50;6.10;99.90
59855;DHT22;45732;52.850;6.896;2023-02-01T03:40:18;6.10;99.90
59855;DHT22;45732;52.850;6.896;2023-02-01T03:42:49;6.10;99.90
59855;DHT22;45732;52.850;6.896;2023-02-01T03:45:24;6.10;99.90
59855;DHT22;45732;52.850;6.896;2023-02-01T03:47:54;6.10;99.90
59855;DHT22;45732;52.850;6.896;2023-02-01T03:50:23;6.10;99.90
59855;DHT22;45732;52.850;6.896;2023-02-01T03:53:10;6.10;99.90
59855;DHT22;45732;52.850;6.896;2023-02-01T03:55:37;6.10;99.90
59855;DHT22;45732;52.850;6.896;2023-02-01T03:58:18;6.10;99.90
59855;DHT22;45732;52.850;6.896;2023-02-01T04:03:17;6.10;99.90
59855;DHT22;45732;52.850;6.896;2023-02-01T04:05:42;6.10;99.90
59855;DHT22;45732;52.850;6.896;2023-02-01T04:08:08;6.10;99.90
59855;DHT22;45732;52.850;6.896;2023-02-01T04:10:34;6.10;99.90
59855;DHT22;45732;52.850;6.896;2023-02-01T04:12:59;6.10;99.90
59855;DHT22;45732;52.850;6.896;2023-02-01T04:15:25;6.10;99.90
59855;DHT22;45732;52.850;6.896;2023-02-01T04:17:51;6.10;99.90
59855;DHT22;45732;52.850;6.896;2023-02-01T04:20:17;6.10;99.90
59855;DHT22;45732;52.850;6.896;2023-02-01T04:22:43;6.00;99.90
59855;DHT22;45732;52.850;6.896;2023-02-01T04:25:09;6.00;99.90
59855;DHT22;45732;52.850;6.896;2023-02-01T04:27:35;6.00;99.90
59855;DHT22;45732;52.850;6.896;2023-02-01T04:30:01;5.90;99.90
59855;DHT22;45732;52.850;6.896;2023-02-01T04:32:26;5.90;99.90
59855;DHT22;45732;52.850;6.896;2023-02-01T04:34:52;5.90;99.90
59855;DHT22;45732;52.850;6.896;2023-02-01T04:37:17;5.90;99.90
59855;DHT22;45732;52.850;6.896;2023-02-01T04:39:43;5.90;99.90
59855;DHT22;45732;52.850;6.896;2023-02-01T04:42:09;5.90;99.90
59855;DHT22;45732;52.850;6.896;2023-02-01T04:44:34;5.90;99.90
59855;DHT22;45732;52.850;6.896;2023-02-01T04:47:02;5.90;99.90
59855;DHT22;45732;52.850;6.896;2023-02-01T04:49:28;5.90;99.90
59855;DHT22;45732;52.850;6.896;2023-02-01T04:51:53;5.90;99.90
59855;DHT22;45732;52.850;6.896;2023-02-01T04:54:19;5.90;99.90
59855;DHT22;45732;52.850;6.896;2023-02-01T04:56:45;5.90;99.90
59855;DHT22;45732;52.850;6.896;2023-02-01T04:59:11;5.90;99.90
59855;DHT22;45732;52.850;6.896;2023-02-01T05:01:37;5.90;99.90
59855;DHT22;45732;52.850;6.896;2023-02-01T05:04:03;6.00;99.90
59855;DHT22;45732;52.850;6.896;2023-02-01T05:06:29;6.00;99.90
59855;DHT22;45732;52.850;6.896;2023-02-01T05:08:54;6.00;99.90
59855;DHT22;45732;52.850;6.896;2023-02-01T05:11:20;6.00;99.90
59855;DHT22;45732;52.850;6.896;2023-02-01T05:14:04;6.00;99.90
59855;DHT22;45732;52.850;6.896;2023-02-01T05:16:30;6.10;99.90
59855;DHT22;45732;52.850;6.896;2023-02-01T05:18:56;6.20;99.90
59855;DHT22;45732;52.850;6.896;2023-02-01T05:21:21;6.20;99.90
59855;DHT22;45732;52.850;6.896;2023-02-01T05:23:47;6.20;99.90
59855;DHT22;45732;52.850;6.896;2023-02-01T05:26:32;6.20;99.90
59855;DHT22;45732;52.850;6.896;2023-02-01T05:28:58;6.20;99.90
59855;DHT22;45732;52.850;6.896;2023-02-01T05:31:23;6.20;99.90
59855;DHT22;45732;52.850;6.896;2023-02-01T05:33:49;6.30;99.90
59855;DHT22;45732;52.850;6.896;2023-02-01T05:36:15;6.30;99.90
59855;DHT22;45732;52.850;6.896;2023-02-01T05:38:41;6.30;99.90
59855;DHT22;45732;52.850;6.896;2023-02-01T05:41:07;6.30;99.90
59855;DHT22;45732;52.850;6.896;2023-02-01T05:43:32;6.30;99.90
59855;DHT22;45732;52.850;6.896;2023-02-01T05:45:58;6.30;99.90
59855;DHT22;45732;52.850;6.896;2023-02-01T05:48:24;6.40;99.90
59855;DHT22;45732;52.850;6.896;2023-02-01T05:50:49;6.40;99.90
59855;DHT22;45732;52.850;6.896;2023-02-01T05:53:15;6.40;99.90
59855;DHT22;45732;52.850;6.896;2023-02-01T05:55:42;6.40;99.90
59855;DHT22;45732;52.850;6.896;2023-02-01T05:58:08;6.40;99.90
59855;DHT22;45732;52.850;6.896;2023-02-01T06:00:33;6.40;99.90
59855;DHT22;45732;52.850;6.896;2023-02-01T06:02:59;6.40;99.90
59855;DHT22;45732;52.850;6.896;2023-02-01T06:05:25;6.40;99.90
59855;DHT22;45732;52.850;6.896;2023-02-01T06:07:52;6.40;99.90
59855;DHT22;45732;52.850;6.896;2023-02-01T06:10:17;6.40;99.90
59855;DHT22;45732;52.850;6.896;2023-02-01T06:12:44;6.40;99.90
59855;DHT22;45732;52.850;6.896;2023-02-01T06:15:11;6.40;99.90
59855;DHT22;45732;52.850;6.896;2023-02-01T06:17:37;6.50;99.90
59855;DHT22;45732;52.850;6.896;2023-02-01T06:20:04;6.50;99.90
59855;DHT22;45732;52.850;6.896;2023-02-01T06:22:29;6.60;99.90
59855;DHT22;45732;52.850;6.896;2023-02-01T06:24:55;6.60;99.90
59855;DHT22;45732;52.850;6.896;2023-02-01T06:27:21;6.60;99.90
59855;DHT22;45732;52.850;6.896;2023-02-01T06:29:46;6.60;99.90
59855;DHT22;45732;52.850;6.896;2023-02-01T06:32:12;6.60;99.90
59855;DHT22;45732;52.850;6.896;2023-02-01T06:34:38;6.60;99.90
59855;DHT22;45732;52.850;6.896;2023-02-01T06:37:05;6.60;99.90
59855;DHT22;45732;52.850;6.896;2023-02-01T06:39:30;6.60;99.90
59855;DHT22;45732;52.850;6.896;2023-02-01T06:41:56;6.50;99.90
59855;DHT22;45732;52.850;6.896;2023-02-01T06:44:22;6.50;99.90
59855;DHT22;45732;52.850;6.896;2023-02-01T06:46:47;6.50;99.90
59855;DHT22;45732;52.850;6.896;2023-02-01T06:49:13;6.50;99.90
59855;DHT22;45732;52.850;6.896;2023-02-01T06:51:39;6.50;99.90
59855;DHT22;45732;52.850;6.896;2023-02-01T06:54:04;6.50;99.90
59855;DHT22;45732;52.850;6.896;2023-02-01T06:56:30;6.50;99.90
59855;DHT22;45732;52.850;6.896;2023-02-01T06:58:56;6.50;99.90
59855;DHT22;45732;52.850;6.896;2023-02-01T07:01:22;6.50;99.90
59855;DHT22;45732;52.850;6.896;2023-02-01T07:03:49;6.50;99.90
59855;DHT22;45732;52.850;6.896;2023-02-01T07:06:16;6.60;99.90
59855;DHT22;45732;52.850;6.896;2023-02-01T07:08:43;6.50;99.90
59855;DHT22;45732;52.850;6.896;2023-02-01T07:11:11;6.60;99.90
59855;DHT22;45732;52.850;6.896;2023-02-01T07:13:37;6.60;99.90
59855;DHT22;45732;52.850;6.896;2023-02-01T07:16:05;6.60;99.90
59855;DHT22;45732;52.850;6.896;2023-02-01T07:18:32;6.60;99.90
59855;DHT22;45732;52.850;6.896;2023-02-01T07:20:59;6.60;99.90
59855;DHT22;45732;52.850;6.896;2023-02-01T07:23:25;6.60;99.90
59855;DHT22;45732;52.850;6.896;2023-02-01T07:25:55;6.70;99.90
59855;DHT22;45732;52.850;6.896;2023-02-01T07:28:21;6.60;99.90
59855;DHT22;45732;52.850;6.896;2023-02-01T07:30:47;6.60;99.90
59855;DHT22;45732;52.850;6.896;2023-02-01T07:33:23;6.60;99.90
59855;DHT22;45732;52.850;6.896;2023-02-01T07:35:50;6.60;99.90
59855;DHT22;45732;52.850;6.896;2023-02-01T07:38:16;6.70;99.90
59855;DHT22;45732;52.850;6.896;2023-02-01T07:40:43;6.70;99.90
59855;DHT22;45732;52.850;6.896;2023-02-01T07:43:09;6.70;99.90
59855;DHT22;45732;52.850;6.896;2023-02-01T07:45:35;6.60;99.90
59855;DHT22;45732;52.850;6.896;2023-02-01T07:48:02;6.70;99.90
59855;DHT22;45732;52.850;6.896;2023-02-01T07:50:28;6.70;99.90
59855;DHT22;45732;52.850;6.896;2023-02-01T07:52:54;6.70;99.90
59855;DHT22;45732;52.850;6.896;2023-02-01T07:55:20;6.70;99.90
59855;DHT22;45732;52.850;6.896;2023-02-01T07:57:46;6.70;99.90
59855;DHT22;45732;52.850;6.896;2023-02-01T08:00:12;6.70;99.90
59855;DHT22;45732;52.850;6.896;2023-02-01T08:03:00;6.70;99.90
59855;DHT22;45732;52.850;6.896;2023-02-01T08:05:26;6.70;99.90
59855;DHT22;45732;52.850;6.896;2023-02-01T08:07:52;6.70;99.90
59855;DHT22;45732;52.850;6.896;2023-02-01T08:10:19;6.70;99.90
59855;DHT22;45732;52.850;6.896;2023-02-01T08:12:45;6.70;99.90
59855;DHT22;45732;52.850;6.896;2023-02-01T08:15:17;6.70;99.90
59855;DHT22;45732;52.850;6.896;2023-02-01T08:17:50;6.70;99.90
59855;DHT22;45732;52.850;6.896;2023-02-01T08:20:20;6.70;99.90
59855;DHT22;45732;52.850;6.896;2023-02-01T08:22:49;6.70;99.90
59855;DHT22;45732;52.850;6.896;2023-02-01T08:25:15;6.70;99.90
59855;DHT22;45732;52.850;6.896;2023-02-01T08:27:41;6.80;99.90
59855;DHT22;45732;52.850;6.896;2023-02-01T08:30:08;6.80;99.90
59855;DHT22;45732;52.850;6.896;2023-02-01T08:32:34;6.80;99.90
59855;DHT22;45732;52.850;6.896;2023-02-01T08:35:01;6.80;99.90
59855;DHT22;45732;52.850;6.896;2023-02-01T08:37:26;6.70;99.90
59855;DHT22;45732;52.850;6.896;2023-02-01T08:39:52;6.80;99.90
59855;DHT22;45732;52.850;6.896;2023-02-01T08:42:18;6.80;99.90
59855;DHT22;45732;52.850;6.896;2023-02-01T08:45:03;6.70;99.90
59855;DHT22;45732;52.850;6.896;2023-02-01T08:47:30;6.70;99.90
59855;DHT22;45732;52.850;6.896;2023-02-01T08:49:56;6.70;99.90
59855;DHT22;45732;52.850;6.896;2023-02-01T08:52:22;6.70;99.90
59855;DHT22;45732;52.850;6.896;2023-02-01T08:54:48;6.70;99.90
59855;DHT22;45732;52.850;6.896;2023-02-01T08:57:14;6.70;99.90
59855;DHT22;45732;52.850;6.896;2023-02-01T08:59:39;6.70;99.90
59855;DHT22;45732;52.850;6.896;2023-02-01T09:02:05;6.70;99.90
59855;DHT22;45732;52.850;6.896;2023-02-01T09:04:31;6.70;99.90
59855;DHT22;45732;52.850;6.896;2023-02-01T09:06:57;6.70;99.90
59855;DHT22;45732;52.850;6.896;2023-02-01T09:09:23;6.70;99.90
59855;DHT22;45732;52.850;6.896;2023-02-01T09:11:49;6.70;99.90
59855;DHT22;45732;52.850;6.896;2023-02-01T09:14:18;6.70;99.90
59855;DHT22;45732;52.850;6.896;2023-02-01T09:16:44;6.70;99.90
59855;DHT22;45732;52.850;6.896;2023-02-01T09:19:09;6.70;99.90
59855;DHT22;45732;52.850;6.896;2023-02-01T09:21:35;6.80;99.90
59855;DHT22;45732;52.850;6.896;2023-02-01T09:24:01;6.70;99.90
59855;DHT22;45732;52.850;6.896;2023-02-01T09:26:27;6.70;99.90
59855;DHT22;45732;52.850;6.896;2023-02-01T09:28:53;6.70;99.90
59855;DHT22;45732;52.850;6.896;2023-02-01T09:31:19;6.80;99.90
59855;DHT22;45732;52.850;6.896;2023-02-01T09:33:45;6.80;99.90
59855;DHT22;45732;52.850;6.896;2023-02-01T09:36:10;6.80;99.90
59855;DHT22;45732;52.850;6.896;2023-02-01T09:38:36;6.80;99.90
59855;DHT22;45732;52.850;6.896;2023-02-01T09:41:20;6.80;99.90
59855;DHT22;45732;52.850;6.896;2023-02-01T09:44:31;6.80;99.90
59855;DHT22;45732;52.850;6.896;2023-02-01T09:47:00;6.80;99.90
59855;DHT22;45732;52.850;6.896;2023-02-01T09:49:31;6.80;99.90
59855;DHT22;45732;52.850;6.896;2023-02-01T09:51:59;6.80;99.90
59855;DHT22;45732;52.850;6.896;2023-02-01T09:54:47;6.80;99.90
59855;DHT22;45732;52.850;6.896;2023-02-01T09:57:19;6.80;99.90
59855;DHT22;45732;52.850;6.896;2023-02-01T09:59:51;6.80;99.90
59855;DHT22;45732;52.850;6.896;2023-02-01T10:02:21;6.80;99.90
59855;DHT22;45732;52.850;6.896;2023-02-01T10:04:48;6.80;99.90
59855;DHT22;45732;52.850;6.896;2023-02-01T10:18:57;6.60;99.90
59855;DHT22;45732;52.850;6.896;2023-02-01T10:24:38;6.40;99.90
59855;DHT22;45732;52.850;6.896;2023-02-01T10:27:24;6.40;99.90
59855;DHT22;45732;52.850;6.896;2023-02-01T10:29:57;6.30;99.90
59855;DHT22;45732;52.850;6.896;2023-02-01T10:32:29;6.30;99.90
59855;DHT22;45732;52.850;6.896;2023-02-01T10:34:59;6.30;99.90
59855;DHT22;45732;52.850;6.896;2023-02-01T10:37:34;6.20;99.90
59855;DHT22;45732;52.850;6.896;2023-02-01T10:40:21;6.20;99.90
59855;DHT22;45732;52.850;6.896;2023-02-01T10:42:53;6.20;99.90
59855;DHT22;45732;52.850;6.896;2023-02-01T10:45:22;6.30;99.90
59855;DHT22;45732;52.850;6.896;2023-02-01T10:47:51;6.30;99.90
59855;DHT22;45732;52.850;6.896;2023-02-01T10:53:24;6.30;99.90
59855;DHT22;45732;52.850;6.896;2023-02-01T10:55:53;6.20;99.90
59855;DHT22;45732;52.850;6.896;2023-02-01T10:58:30;6.20;99.90
59855;DHT22;45732;52.850;6.896;2023-02-01T11:01:06;6.20;99.90
59855;DHT22;45732;52.850;6.896;2023-02-01T11:03:34;6.20;99.90
59855;DHT22;45732;52.850;6.896;2023-02-01T11:06:01;6.20;99.90
59855;DHT22;45732;52.850;6.896;2023-02-01T11:08:28;6.20;99.90
59855;DHT22;45732;52.850;6.896;2023-02-01T11:11:02;6.30;99.90
59855;DHT22;45732;52.850;6.896;2023-02-01T11:13:32;6.30;99.90
59855;DHT22;45732;52.850;6.896;2023-02-01T11:16:03;6.30;99.90
59855;DHT22;45732;52.850;6.896;2023-02-01T11:18:32;6.40;99.90
59855;DHT22;45732;52.850;6.896;2023-02-01T11:21:00;6.40;99.90
59855;DHT22;45732;52.850;6.896;2023-02-01T11:23:28;6.40;99.90
59855;DHT22;45732;52.850;6.896;2023-02-01T11:25:57;6.50;99.90
59855;DHT22;45732;52.850;6.896;2023-02-01T11:28:29;6.50;99.90
59855;DHT22;45732;52.850;6.896;2023-02-01T11:30:59;6.50;99.90
59855;DHT22;45732;52.850;6.896;2023-02-01T11:33:30;6.50;99.90
59855;DHT22;45732;52.850;6.896;2023-02-01T11:35:59;6.50;99.90
59855;DHT22;45732;52.850;6.896;2023-02-01T11:38:31;6.50;99.90
59855;DHT22;45732;52.850;6.896;2023-02-01T11:41:21;6.50;99.90
59855;DHT22;45732;52.850;6.896;2023-02-01T11:43:52;6.60;99.90
59855;DHT22;45732;52.850;6.896;2023-02-01T11:46:19;6.70;99.90
59855;DHT22;45732;52.850;6.896;2023-02-01T11:48:51;6.70;99.90
59855;DHT22;45732;52.850;6.896;2023-02-01T11:56:40;6.70;99.90
59855;DHT22;45732;52.850;6.896;2023-02-01T12:02:11;6.60;99.90
59855;DHT22;45732;52.850;6.896;2023-02-01T12:07:19;6.60;99.90
59855;DHT22;45732;52.850;6.896;2023-02-01T12:13:07;6.60;99.90
59855;DHT22;45732;52.850;6.896;2023-02-01T12:15:54;6.70;99.90
59855;DHT22;45732;52.850;6.896;2023-02-01T12:35:17;7.10;99.90
59855;DHT22;45732;52.850;6.896;2023-02-01T12:41:05;7.10;99.90
59855;DHT22;45732;52.850;6.896;2023-02-01T12:43:40;7.00;99.90
59855;DHT22;45732;52.850;6.896;2023-02-01T12:51:38;7.00;99.90
59855;DHT22;45732;52.850;6.896;2023-02-01T12:56:46;7.20;99.90
59855;DHT22;45732;52.850;6.896;2023-02-01T12:59:33;7.30;99.90
59855;DHT22;45732;52.850;6.896;2023-02-01T13:02:18;7.40;99.90
59855;DHT22;45732;52.850;6.896;2023-02-01T13:05:02;7.50;99.90
59855;DHT22;45732;52.850;6.896;2023-02-01T13:07:52;7.50;99.90
59855;DHT22;45732;52.850;6.896;2023-02-01T13:10:43;7.60;99.90
59855;DHT22;45732;52.850;6.896;2023-02-01T13:18:32;7.60;99.90
59855;DHT22;45732;52.850;6.896;2023-02-01T13:21:25;7.50;99.90
59855;DHT22;45732;52.850;6.896;2023-02-01T13:23:50;7.40;99.90
59855;DHT22;45732;52.850;6.896;2023-02-01T13:26:17;7.40;99.90
59855;DHT22;45732;52.850;6.896;2023-02-01T13:29:04;7.50;99.90
59855;DHT22;45732;52.850;6.896;2023-02-01T13:34:46;7.50;99.90
59855;DHT22;45732;52.850;6.896;2023-02-01T13:37:47;7.50;99.90
59855;DHT22;45732;52.850;6.896;2023-02-01T13:40:29;7.50;99.90
59855;DHT22;45732;52.850;6.896;2023-02-01T13:43:00;7.60;99.90
59855;DHT22;45732;52.850;6.896;2023-02-01T13:45:33;7.60;99.90
59855;DHT22;45732;52.850;6.896;2023-02-01T13:48:03;7.60;99.90
59855;DHT22;45732;52.850;6.896;2023-02-01T13:50:37;7.60;99.90
59855;DHT22;45732;52.850;6.896;2023-02-01T13:58:14;7.50;99.90
59855;DHT22;45732;52.850;6.896;2023-02-01T14:00:42;7.50;99.90
59855;DHT22;45732;52.850;6.896;2023-02-01T14:03:13;7.60;99.90
59855;DHT22;45732;52.850;6.896;2023-02-01T14:08:11;7.60;99.90
59855;DHT22;45732;52.850;6.896;2023-02-01T14:23:45;7.70;99.90
59855;DHT22;45732;52.850;6.896;2023-02-01T14:26:15;7.70;99.90
59855;DHT22;45732;52.850;6.896;2023-02-01T14:28:58;7.70;99.90
59855;DHT22;45732;52.850;6.896;2023-02-01T14:31:40;7.80;99.90
59855;DHT22;45732;52.850;6.896;2023-02-01T14:34:19;7.80;99.90
59855;DHT22;45732;52.850;6.896;2023-02-01T14:37:10;7.90;99.90
59855;DHT22;45732;52.850;6.896;2023-02-01T14:42:28;7.90;99.90
59855;DHT22;45732;52.850;6.896;2023-02-01T14:45:45;7.90;99.90
59855;DHT22;45732;52.850;6.896;2023-02-01T14:47:41;7.90;99.90
59855;DHT22;45732;52.850;6.896;2023-02-01T15:01:05;7.80;99.90
59855;DHT22;45732;52.850;6.896;2023-02-01T15:03:49;7.80;99.90
59855;DHT22;45732;52.850;6.896;2023-02-01T15:14:25;7.70;99.90
59855;DHT22;45732;52.850;6.896;2023-02-01T15:16:51;7.70;99.90
59855;DHT22;45732;52.850;6.896;2023-02-01T15:19:21;7.60;99.90
59855;DHT22;45732;52.850;6.896;2023-02-01T15:21:50;7.60;99.90
59855;DHT22;45732;52.850;6.896;2023-02-01T15:24:27;7.60;99.90
59855;DHT22;45732;52.850;6.896;2023-02-01T15:26:55;7.60;99.90
59855;DHT22;45732;52.850;6.896;2023-02-01T15:29:23;7.60;99.90
59855;DHT22;45732;52.850;6.896;2023-02-01T15:31:53;7.50;99.90
59855;DHT22;45732;52.850;6.896;2023-02-01T15:34:20;7.60;99.90
59855;DHT22;45732;52.850;6.896;2023-02-01T15:36:46;7.60;99.90
59855;DHT22;45732;52.850;6.896;2023-02-01T15:42:11;7.60;99.90
59855;DHT22;45732;52.850;6.896;2023-02-01T15:44:43;7.60;99.90
59855;DHT22;45732;52.850;6.896;2023-02-01T15:49:41;7.50;99.90
59855;DHT22;45732;52.850;6.896;2023-02-01T15:52:39;7.50;99.90
59855;DHT22;45732;52.850;6.896;2023-02-01T15:55:08;7.50;99.90
59855;DHT22;45732;52.850;6.896;2023-02-01T15:57:36;7.60;99.90
59855;DHT22;45732;52.850;6.896;2023-02-01T16:00:17;7.60;99.90
59855;DHT22;45732;52.850;6.896;2023-02-01T16:03:44;7.60;99.90
59855;DHT22;45732;52.850;6.896;2023-02-01T16:05:44;7.60;99.90
59855;DHT22;45732;52.850;6.896;2023-02-01T16:08:14;7.60;99.90
59855;DHT22;45732;52.850;6.896;2023-02-01T16:10:46;7.60;99.90
59855;DHT22;45732;52.850;6.896;2023-02-01T16:13:13;7.60;99.90
59855;DHT22;45732;52.850;6.896;2023-02-01T16:15:40;7.60;99.90
59855;DHT22;45732;52.850;6.896;2023-02-01T16:18:09;7.60;99.90
59855;DHT22;45732;52.850;6.896;2023-02-01T16:20:36;7.70;99.90
59855;DHT22;45732;52.850;6.896;2023-02-01T16:23:03;7.60;99.90
59855;DHT22;45732;52.850;6.896;2023-02-01T16:25:30;7.60;99.90
59855;DHT22;45732;52.850;6.896;2023-02-01T16:27:55;7.60;99.90
59855;DHT22;45732;52.850;6.896;2023-02-01T16:30:21;7.60;99.90
59855;DHT22;45732;52.850;6.896;2023-02-01T16:32:52;7.60;99.90
59855;DHT22;45732;52.850;6.896;2023-02-01T16:35:32;7.50;99.90
59855;DHT22;45732;52.850;6.896;2023-02-01T16:38:02;7.50;99.90
59855;DHT22;45732;52.850;6.896;2023-02-01T16:40:33;7.50;99.90
59855;DHT22;45732;52.850;6.896;2023-02-01T16:42:59;7.60;99.90
59855;DHT22;45732;52.850;6.896;2023-02-01T16:45:25;7.60;99.90
59855;DHT22;45732;52.850;6.896;2023-02-01T16:47:54;7.60;99.90
59855;DHT22;45732;52.850;6.896;2023-02-01T16:50:24;7.50;99.90
59855;DHT22;45732;52.850;6.896;2023-02-01T16:52:51;7.50;99.90
59855;DHT22;45732;52.850;6.896;2023-02-01T16:55:19;7.50;99.90
59855;DHT22;45732;52.850;6.896;2023-02-01T16:57:46;7.50;99.90
59855;DHT22;45732;52.850;6.896;2023-02-01T17:00:13;7.50;99.90
59855;DHT22;45732;52.850;6.896;2023-02-01T17:02:41;7.50;99.90
59855;DHT22;45732;52.850;6.896;2023-02-01T17:05:08;7.40;99.90
59855;DHT22;45732;52.850;6.896;2023-02-01T17:07:35;7.40;99.90
59855;DHT22;45732;52.850;6.896;2023-02-01T17:10:04;7.30;99.90
59855;DHT22;45732;52.850;6.896;2023-02-01T17:12:32;7.30;99.90
59855;DHT22;45732;52.850;6.896;2023-02-01T17:14:58;7.20;99.90
59855;DHT22;45732;52.850;6.896;2023-02-01T17:17:36;7.30;99.90
59855;DHT22;45732;52.850;6.896;2023-02-01T17:20:04;7.20;99.90
59855;DHT22;45732;52.850;6.896;2023-02-01T17:22:32;7.20;99.90
59855;DHT22;45732;52.850;6.896;2023-02-01T17:24:57;7.20;99.90
59855;DHT22;45732;52.850;6.896;2023-02-01T17:27:23;7.20;99.90
59855;DHT22;45732;52.850;6.896;2023-02-01T17:29:49;7.20;99.90
59855;DHT22;45732;52.850;6.896;2023-02-01T17:32:18;7.20;99.90
59855;DHT22;45732;52.850;6.896;2023-02-01T17:34:44;7.10;99.90
59855;DHT22;45732;52.850;6.896;2023-02-01T17:37:27;7.10;99.90
59855;DHT22;45732;52.850;6.896;2023-02-01T17:39:53;7.10;99.90
59855;DHT22;45732;52.850;6.896;2023-02-01T17:42:19;7.10;99.90
59855;DHT22;45732;52.850;6.896;2023-02-01T17:44:45;7.10;99.90
59855;DHT22;45732;52.850;6.896;2023-02-01T17:47:10;7.00;99.90
59855;DHT22;45732;52.850;6.896;2023-02-01T17:49:36;7.00;99.90
59855;DHT22;45732;52.850;6.896;2023-02-01T17:52:04;7.10;99.90
59855;DHT22;45732;52.850;6.896;2023-02-01T17:54:30;7.00;99.90
59855;DHT22;45732;52.850;6.896;2023-02-01T17:56:55;7.00;99.90
59855;DHT22;45732;52.850;6.896;2023-02-01T17:59:25;7.00;99.90
59855;DHT22;45732;52.850;6.896;2023-02-01T18:01:51;7.00;99.90
59855;DHT22;45732;52.850;6.896;2023-02-01T18:04:18;7.00;99.90
59855;DHT22;45732;52.850;6.896;2023-02-01T18:06:44;7.00;99.90
59855;DHT22;45732;52.850;6.896;2023-02-01T18:09:10;7.00;99.90
59855;DHT22;45732;52.850;6.896;2023-02-01T18:11:36;7.00;99.90
59855;DHT22;45732;52.850;6.896;2023-02-01T18:14:02;7.00;99.90
59855;DHT22;45732;52.850;6.896;2023-02-01T18:16:32;7.00;99.90
59855;DHT22;45732;52.850;6.896;2023-02-01T18:18:58;7.00;99.90
59855;DHT22;45732;52.850;6.896;2023-02-01T18:21:35;7.00;99.90
59855;DHT22;45732;52.850;6.896;2023-02-01T18:24:01;6.90;99.90
59855;DHT22;45732;52.850;6.896;2023-02-01T18:26:27;7.00;99.90
59855;DHT22;45732;52.850;6.896;2023-02-01T18:28:53;7.00;99.90
59855;DHT22;45732;52.850;6.896;2023-02-01T18:31:23;7.00;99.90
59855;DHT22;45732;52.850;6.896;2023-02-01T18:33:50;6.90;99.90
59855;DHT22;45732;52.850;6.896;2023-02-01T18:36:17;6.90;99.90